Navin Harrier — V7LK4 — position and weather

sailwx.info

Track history (hours):
 
Tides and Currents Weather Stations Pressure Air Temp Water Temp Dewpoint Dewpoint Depression Visibility Wind Speed Wind Dir Waves Ship Positions

Navin Harrier

Last reported at 2018-Feb-19 04:10 UTC. Time now 2018-Feb-21 17:47 UTC.
Position N 37°44' E 024°14'.

Length 113 m; draft 6.8 m.

Type: Ship (hazmat cat B). MMSI: 538090483.

Date/timePositionNaut miles runAvg speedWind from/ knotsBaromVisibWave heightAir tempDewpointWater temp
2018-Feb-19 04:10N 37°44' E 024°14'  
2018-Feb-15 04:07N 46°15' E 030°54'2 9.0
2018-Feb-15 03:52N 46°17' E 030°55'4 9.0
2018-Feb-15 03:28N 46°21' E 030°55'4 9.4
2018-Feb-15 03:00N 46°25' E 030°55'5 9.6
2018-Feb-15 02:30N 46°30' E 030°55'4 8.9
2018-Feb-15 02:00N 46°33' E 030°60'22 9.5
2018-Feb-14 23:42N 46°35' E 031°31'3 9.8
2018-Feb-14 23:23N 46°35' E 031°36'4 9.9
2018-Feb-14 22:58N 46°36' E 031°42'510.2
2018-Feb-14 22:30N 46°36' E 031°49'5 9.7
2018-Feb-14 22:00N 46°38' E 031°55'5 9.2
2018-Feb-14 21:30N 46°43' E 031°56'3 5.3
2018-Feb-14 21:00N 46°46' E 031°56'1 1.9
2018-Feb-14 20:30N 46°46' E 031°57'0 0.0
2018-Feb-14 20:00N 46°46' E 031°57'0 0.0
2018-Feb-14 19:30N 46°46' E 031°57'0 0.0
2018-Feb-14 19:00N 46°46' E 031°57'0 0.0
2018-Feb-14 18:30N 46°46' E 031°57'0 0.0
2018-Feb-14 17:58N 46°46' E 031°57'0 0.0
2018-Feb-14 17:30N 46°46' E 031°57'0 0.0
2018-Feb-14 17:00N 46°46' E 031°57'0 0.0
2018-Feb-14 16:30N 46°46' E 031°57'0 0.0
2018-Feb-14 16:00N 46°46' E 031°57'0 0.0
2018-Feb-14 15:30N 46°46' E 031°57'0 0.0
2018-Feb-14 15:00N 46°46' E 031°57'0 0.0
2018-Feb-14 14:30N 46°46' E 031°57'0 0.0
2018-Feb-14 14:00N 46°46' E 031°57'0 0.0
2018-Feb-14 13:30N 46°46' E 031°57'0 0.0
2018-Feb-14 13:00N 46°46' E 031°57'0 0.0
2018-Feb-14 12:30N 46°46' E 031°57'0 0.0
2018-Feb-14 12:00N 46°46' E 031°57'0 0.0
2018-Feb-14 11:30N 46°46' E 031°57'0 0.0
2018-Feb-14 11:00N 46°46' E 031°57'0 0.0
2018-Feb-14 10:30N 46°46' E 031°57'0 0.0
2018-Feb-14 10:00N 46°46' E 031°57'0 0.0
2018-Feb-14 09:30N 46°46' E 031°57'0 0.0
2018-Feb-14 09:00N 46°46' E 031°57'0 0.0
2018-Feb-14 08:30N 46°46' E 031°57'0 0.0
2018-Feb-14 08:00N 46°46' E 031°57'0 0.0
2018-Feb-14 07:31N 46°46' E 031°57'0 0.0
2018-Feb-14 07:01N 46°46' E 031°57'0 0.0
2018-Feb-14 06:30N 46°46' E 031°57'0 0.0
2018-Feb-14 06:01N 46°46' E 031°57'0 0.0
2018-Feb-14 05:30N 46°46' E 031°57'0 0.0
2018-Feb-14 05:01N 46°46' E 031°57'0 0.0
2018-Feb-14 04:31N 46°46' E 031°57'0 0.0
2018-Feb-14 04:01N 46°46' E 031°57'0 0.0
2018-Feb-14 03:30N 46°46' E 031°57'0 0.0
2018-Feb-14 03:01N 46°46' E 031°57'0 0.0
2018-Feb-14 02:30N 46°46' E 031°57'0 0.0
2018-Feb-14 02:00N 46°46' E 031°57'0 0.0
2018-Feb-14 01:30N 46°46' E 031°57'0 0.0
2018-Feb-14 01:00N 46°46' E 031°57'0 0.0
2018-Feb-14 00:30N 46°46' E 031°57'0 0.0
2018-Feb-14 00:01N 46°46' E 031°57'0 0.0
2018-Feb-13 23:31N 46°46' E 031°57'0 0.0
2018-Feb-13 23:00N 46°46' E 031°57'0 0.0
2018-Feb-13 22:31N 46°46' E 031°57'0 0.0
2018-Feb-13 22:01N 46°46' E 031°57'0 0.0
2018-Feb-13 21:31N 46°46' E 031°57'0 0.0
2018-Feb-13 21:01N 46°46' E 031°57'0 0.0
2018-Feb-13 20:30N 46°46' E 031°57'0 0.0
2018-Feb-13 20:01N 46°46' E 031°57'0 0.0
2018-Feb-13 19:31N 46°46' E 031°57'0 0.0
2018-Feb-13 19:00N 46°46' E 031°57'0 0.0
2018-Feb-13 18:30N 46°46' E 031°57'0 0.0
2018-Feb-13 18:01N 46°46' E 031°57'0 0.0
2018-Feb-13 17:29N 46°46' E 031°57'0 0.0
2018-Feb-13 17:01N 46°46' E 031°57'0 0.0
2018-Feb-13 16:30N 46°46' E 031°57'0 0.0
2018-Feb-13 16:01N 46°46' E 031°57'0 0.0
2018-Feb-13 15:31N 46°46' E 031°57'0 0.0
2018-Feb-13 15:01N 46°46' E 031°57'0 0.0
2018-Feb-13 14:31N 46°46' E 031°57'0 0.0
2018-Feb-13 14:00N 46°46' E 031°57'0 0.0
2018-Feb-13 13:31N 46°46' E 031°57'0 0.0
2018-Feb-13 13:00N 46°46' E 031°57'0 0.0
2018-Feb-13 12:31N 46°46' E 031°57'0 0.0
2018-Feb-13 12:01N 46°46' E 031°57'0 0.0
2018-Feb-13 11:31N 46°46' E 031°57'0 0.0
2018-Feb-13 11:01N 46°46' E 031°57'0 0.0
2018-Feb-13 10:30N 46°46' E 031°57'0 0.0
2018-Feb-13 10:01N 46°46' E 031°57'0 0.0
2018-Feb-13 09:31N 46°46' E 031°57'0 0.0
2018-Feb-13 09:00N 46°46' E 031°57'0 0.0
2018-Feb-13 08:31N 46°46' E 031°57'0 0.0
2018-Feb-13 08:01N 46°46' E 031°57'0 0.0
2018-Feb-13 07:31N 46°46' E 031°57'0 0.0
2018-Feb-13 07:01N 46°46' E 031°57'0 0.0
2018-Feb-13 06:31N 46°46' E 031°57'0 0.0
2018-Feb-13 06:00N 46°46' E 031°57'0 0.0
2018-Feb-13 05:30N 46°46' E 031°57'0 0.0
2018-Feb-13 05:01N 46°46' E 031°57'0 0.0
2018-Feb-13 04:31N 46°46' E 031°57'0 0.0
2018-Feb-13 04:01N 46°46' E 031°57'0 0.0
2018-Feb-13 03:31N 46°46' E 031°57'0 0.0
2018-Feb-13 03:00N 46°46' E 031°57'0 0.0
2018-Feb-13 02:31N 46°46' E 031°57'0 0.0
2018-Feb-13 02:01N 46°46' E 031°57'0 0.0
2018-Feb-13 01:30N 46°46' E 031°57'0 0.0
2018-Feb-13 01:01N 46°46' E 031°57'0 0.0
2018-Feb-13 00:30N 46°46' E 031°57'0 0.0
2018-Feb-13 00:00N 46°46' E 031°57'0 0.0
2018-Feb-12 23:31N 46°46' E 031°57'0 0.0
2018-Feb-12 23:01N 46°46' E 031°57'0 0.0
2018-Feb-12 22:30N 46°46' E 031°57'0 0.0
2018-Feb-12 22:01N 46°46' E 031°57'0 0.0
2018-Feb-12 21:30N 46°46' E 031°57'0 0.0
2018-Feb-12 21:00N 46°46' E 031°57'0 0.0
2018-Feb-12 20:30N 46°46' E 031°57'0 0.0
2018-Feb-12 20:00N 46°46' E 031°57'0 0.0
2018-Feb-12 19:30N 46°46' E 031°57'0 0.0
2018-Feb-12 19:00N 46°46' E 031°57'0 0.0
2018-Feb-12 18:31N 46°46' E 031°57'0 0.0
2018-Feb-12 18:01N 46°46' E 031°57'0 0.0
2018-Feb-12 17:31N 46°46' E 031°57'0 0.0
2018-Feb-12 17:00N 46°46' E 031°57'0 0.0
2018-Feb-12 16:30N 46°46' E 031°57'0 0.0
2018-Feb-12 16:01N 46°46' E 031°57'0 0.0
2018-Feb-12 15:30N 46°46' E 031°57'0 0.0
2018-Feb-12 15:01N 46°46' E 031°57'0 0.0
2018-Feb-12 14:31N 46°46' E 031°57'0 0.0
2018-Feb-12 14:00N 46°46' E 031°57'0 0.0
2018-Feb-12 13:30N 46°46' E 031°57'0 0.0
2018-Feb-12 13:00N 46°46' E 031°57'0 0.0
2018-Feb-12 12:31N 46°46' E 031°57'0 0.0
2018-Feb-12 12:01N 46°46' E 031°57'0 0.0
2018-Feb-12 11:29N 46°46' E 031°57'0 0.0
2018-Feb-12 11:00N 46°46' E 031°57'0 0.0
2018-Feb-12 10:31N 46°46' E 031°57'0 0.0
2018-Feb-12 10:01N 46°46' E 031°57'0 0.0
2018-Feb-12 09:31N 46°46' E 031°57'0 0.0
2018-Feb-12 09:00N 46°46' E 031°57'0 0.0
2018-Feb-12 08:30N 46°46' E 031°57'0 0.0
2018-Feb-12 08:01N 46°46' E 031°57'0 0.0
2018-Feb-12 07:31N 46°46' E 031°57'0 0.0
2018-Feb-12 07:00N 46°46' E 031°57'0 0.0
2018-Feb-12 06:30N 46°46' E 031°57'0 0.0
2018-Feb-12 06:01N 46°46' E 031°57'0 0.0
2018-Feb-12 05:31N 46°46' E 031°57'0 0.0
2018-Feb-12 05:01N 46°46' E 031°57'0 0.0
2018-Feb-12 04:31N 46°46' E 031°57'0 0.0
2018-Feb-12 04:01N 46°46' E 031°57'0 0.0
2018-Feb-12 03:31N 46°46' E 031°57'0 0.0
2018-Feb-12 03:00N 46°46' E 031°57'0 0.0
2018-Feb-12 02:31N 46°46' E 031°57'0 0.0
2018-Feb-12 02:00N 46°46' E 031°57'1 1.8
2018-Feb-12 01:30N 46°46' E 031°56'2 4.7
2018-Feb-12 01:01N 46°43' E 031°56'5 9.9
2018-Feb-12 00:31N 46°38' E 031°55'5 9.8
2018-Feb-12 00:01N 46°36' E 031°49'510.2
2018-Feb-11 23:31N 46°36' E 031°41'25 9.1
2018-Feb-11 20:45N 46°34' E 031°05'2 7.8
2018-Feb-11 20:30N 46°34' E 031°02'3 6.3
2018-Feb-11 20:01N 46°33' E 030°58'3 5.4
2018-Feb-11 19:22N 46°29' E 030°57'3 5.5
2018-Feb-11 18:45N 46°26' E 030°57'5 0.1
2018-Feb-10 02:15N 46°23' E 031°02'  
Track history (hours):
 
Tides and Currents Weather Stations Pressure Air Temp Water Temp Dewpoint Dewpoint Depression Visibility Wind Speed Wind Dir Waves Ship Positions

Navin Harrier

Last reported at 2018-Feb-19 04:10 UTC. Time now 2018-Feb-21 17:47 UTC.
Position N 37°44' E 024°14'.

Length 113 m; draft 6.8 m.

Type: Ship (hazmat cat B). MMSI: 538090483.

Date/timePositionNaut miles runAvg speedWind from/ knotsBaromVisibWave heightAir tempDewpointWater temp
2018-Feb-19 04:10N 37°44' E 024°14'  
2018-Feb-15 04:07N 46°15' E 030°54'2 9.0
2018-Feb-15 03:52N 46°17' E 030°55'4 9.0
2018-Feb-15 03:28N 46°21' E 030°55'4 9.4
2018-Feb-15 03:00N 46°25' E 030°55'5 9.6
2018-Feb-15 02:30N 46°30' E 030°55'4 8.9
2018-Feb-15 02:00N 46°33' E 030°60'22 9.5
2018-Feb-14 23:42N 46°35' E 031°31'3 9.8
2018-Feb-14 23:23N 46°35' E 031°36'4 9.9
2018-Feb-14 22:58N 46°36' E 031°42'510.2
2018-Feb-14 22:30N 46°36' E 031°49'5 9.7
2018-Feb-14 22:00N 46°38' E 031°55'5 9.2
2018-Feb-14 21:30N 46°43' E 031°56'3 5.3
2018-Feb-14 21:00N 46°46' E 031°56'1 1.9
2018-Feb-14 20:30N 46°46' E 031°57'0 0.0
2018-Feb-14 20:00N 46°46' E 031°57'0 0.0
2018-Feb-14 19:30N 46°46' E 031°57'0 0.0
2018-Feb-14 19:00N 46°46' E 031°57'0 0.0
2018-Feb-14 18:30N 46°46' E 031°57'0 0.0
2018-Feb-14 17:58N 46°46' E 031°57'0 0.0
2018-Feb-14 17:30N 46°46' E 031°57'0 0.0
2018-Feb-14 17:00N 46°46' E 031°57'0 0.0
2018-Feb-14 16:30N 46°46' E 031°57'0 0.0
2018-Feb-14 16:00N 46°46' E 031°57'0 0.0
2018-Feb-14 15:30N 46°46' E 031°57'0 0.0
2018-Feb-14 15:00N 46°46' E 031°57'0 0.0
2018-Feb-14 14:30N 46°46' E 031°57'0 0.0
2018-Feb-14 14:00N 46°46' E 031°57'0 0.0
2018-Feb-14 13:30N 46°46' E 031°57'0 0.0
2018-Feb-14 13:00N 46°46' E 031°57'0 0.0
2018-Feb-14 12:30N 46°46' E 031°57'0 0.0
2018-Feb-14 12:00N 46°46' E 031°57'0 0.0
2018-Feb-14 11:30N 46°46' E 031°57'0 0.0
2018-Feb-14 11:00N 46°46' E 031°57'0 0.0
2018-Feb-14 10:30N 46°46' E 031°57'0 0.0
2018-Feb-14 10:00N 46°46' E 031°57'0 0.0
2018-Feb-14 09:30N 46°46' E 031°57'0 0.0
2018-Feb-14 09:00N 46°46' E 031°57'0 0.0
2018-Feb-14 08:30N 46°46' E 031°57'0 0.0
2018-Feb-14 08:00N 46°46' E 031°57'0 0.0
2018-Feb-14 07:31N 46°46' E 031°57'0 0.0
2018-Feb-14 07:01N 46°46' E 031°57'0 0.0
2018-Feb-14 06:30N 46°46' E 031°57'0 0.0
2018-Feb-14 06:01N 46°46' E 031°57'0 0.0
2018-Feb-14 05:30N 46°46' E 031°57'0 0.0
2018-Feb-14 05:01N 46°46' E 031°57'0 0.0
2018-Feb-14 04:31N 46°46' E 031°57'0 0.0
2018-Feb-14 04:01N 46°46' E 031°57'0 0.0
2018-Feb-14 03:30N 46°46' E 031°57'0 0.0
2018-Feb-14 03:01N 46°46' E 031°57'0 0.0
2018-Feb-14 02:30N 46°46' E 031°57'0 0.0
2018-Feb-14 02:00N 46°46' E 031°57'0 0.0
2018-Feb-14 01:30N 46°46' E 031°57'0 0.0
2018-Feb-14 01:00N 46°46' E 031°57'0 0.0
2018-Feb-14 00:30N 46°46' E 031°57'0 0.0
2018-Feb-14 00:01N 46°46' E 031°57'0 0.0
2018-Feb-13 23:31N 46°46' E 031°57'0 0.0
2018-Feb-13 23:00N 46°46' E 031°57'0 0.0
2018-Feb-13 22:31N 46°46' E 031°57'0 0.0
2018-Feb-13 22:01N 46°46' E 031°57'0 0.0
2018-Feb-13 21:31N 46°46' E 031°57'0 0.0
2018-Feb-13 21:01N 46°46' E 031°57'0 0.0
2018-Feb-13 20:30N 46°46' E 031°57'0 0.0
2018-Feb-13 20:01N 46°46' E 031°57'0 0.0
2018-Feb-13 19:31N 46°46' E 031°57'0 0.0
2018-Feb-13 19:00N 46°46' E 031°57'0 0.0
2018-Feb-13 18:30N 46°46' E 031°57'0 0.0
2018-Feb-13 18:01N 46°46' E 031°57'0 0.0
2018-Feb-13 17:29N 46°46' E 031°57'0 0.0
2018-Feb-13 17:01N 46°46' E 031°57'0 0.0
2018-Feb-13 16:30N 46°46' E 031°57'0 0.0
2018-Feb-13 16:01N 46°46' E 031°57'0 0.0
2018-Feb-13 15:31N 46°46' E 031°57'0 0.0
2018-Feb-13 15:01N 46°46' E 031°57'0 0.0
2018-Feb-13 14:31N 46°46' E 031°57'0 0.0
2018-Feb-13 14:00N 46°46' E 031°57'0 0.0
2018-Feb-13 13:31N 46°46' E 031°57'0 0.0
2018-Feb-13 13:00N 46°46' E 031°57'0 0.0
2018-Feb-13 12:31N 46°46' E 031°57'0 0.0
2018-Feb-13 12:01N 46°46' E 031°57'0 0.0
2018-Feb-13 11:31N 46°46' E 031°57'0 0.0
2018-Feb-13 11:01N 46°46' E 031°57'0 0.0
2018-Feb-13 10:30N 46°46' E 031°57'0 0.0
2018-Feb-13 10:01N 46°46' E 031°57'0 0.0
2018-Feb-13 09:31N 46°46' E 031°57'0 0.0
2018-Feb-13 09:00N 46°46' E 031°57'0 0.0
2018-Feb-13 08:31N 46°46' E 031°57'0 0.0
2018-Feb-13 08:01N 46°46' E 031°57'0 0.0
2018-Feb-13 07:31N 46°46' E 031°57'0 0.0
2018-Feb-13 07:01N 46°46' E 031°57'0 0.0
2018-Feb-13 06:31N 46°46' E 031°57'0 0.0
2018-Feb-13 06:00N 46°46' E 031°57'0 0.0
2018-Feb-13 05:30N 46°46' E 031°57'0 0.0
2018-Feb-13 05:01N 46°46' E 031°57'0 0.0
2018-Feb-13 04:31N 46°46' E 031°57'0 0.0
2018-Feb-13 04:01N 46°46' E 031°57'0 0.0
2018-Feb-13 03:31N 46°46' E 031°57'0 0.0
2018-Feb-13 03:00N 46°46' E 031°57'0 0.0
2018-Feb-13 02:31N 46°46' E 031°57'0 0.0
2018-Feb-13 02:01N 46°46' E 031°57'0 0.0
2018-Feb-13 01:30N 46°46' E 031°57'0 0.0
2018-Feb-13 01:01N 46°46' E 031°57'0 0.0
2018-Feb-13 00:30N 46°46' E 031°57'0 0.0
2018-Feb-13 00:00N 46°46' E 031°57'0 0.0
2018-Feb-12 23:31N 46°46' E 031°57'0 0.0
2018-Feb-12 23:01N 46°46' E 031°57'0 0.0
2018-Feb-12 22:30N 46°46' E 031°57'0 0.0
2018-Feb-12 22:01N 46°46' E 031°57'0 0.0
2018-Feb-12 21:30N 46°46' E 031°57'0 0.0
2018-Feb-12 21:00N 46°46' E 031°57'0 0.0
2018-Feb-12 20:30N 46°46' E 031°57'0 0.0
2018-Feb-12 20:00N 46°46' E 031°57'0 0.0
2018-Feb-12 19:30N 46°46' E 031°57'0 0.0
2018-Feb-12 19:00N 46°46' E 031°57'0 0.0
2018-Feb-12 18:31N 46°46' E 031°57'0 0.0
2018-Feb-12 18:01N 46°46' E 031°57'0 0.0
2018-Feb-12 17:31N 46°46' E 031°57'0 0.0
2018-Feb-12 17:00N 46°46' E 031°57'0 0.0
2018-Feb-12 16:30N 46°46' E 031°57'0 0.0
2018-Feb-12 16:01N 46°46' E 031°57'0 0.0
2018-Feb-12 15:30N 46°46' E 031°57'0 0.0
2018-Feb-12 15:01N 46°46' E 031°57'0 0.0
2018-Feb-12 14:31N 46°46' E 031°57'0 0.0
2018-Feb-12 14:00N 46°46' E 031°57'0 0.0
2018-Feb-12 13:30N 46°46' E 031°57'0 0.0
2018-Feb-12 13:00N 46°46' E 031°57'0 0.0
2018-Feb-12 12:31N 46°46' E 031°57'0 0.0
2018-Feb-12 12:01N 46°46' E 031°57'0 0.0
2018-Feb-12 11:29N 46°46' E 031°57'0 0.0
2018-Feb-12 11:00N 46°46' E 031°57'0 0.0
2018-Feb-12 10:31N 46°46' E 031°57'0 0.0
2018-Feb-12 10:01N 46°46' E 031°57'0 0.0
2018-Feb-12 09:31N 46°46' E 031°57'0 0.0
2018-Feb-12 09:00N 46°46' E 031°57'0 0.0
2018-Feb-12 08:30N 46°46' E 031°57'0 0.0
2018-Feb-12 08:01N 46°46' E 031°57'0 0.0
2018-Feb-12 07:31N 46°46' E 031°57'0 0.0
2018-Feb-12 07:00N 46°46' E 031°57'0 0.0
2018-Feb-12 06:30N 46°46' E 031°57'0 0.0
2018-Feb-12 06:01N 46°46' E 031°57'0 0.0
2018-Feb-12 05:31N 46°46' E 031°57'0 0.0
2018-Feb-12 05:01N 46°46' E 031°57'0 0.0
2018-Feb-12 04:31N 46°46' E 031°57'0 0.0
2018-Feb-12 04:01N 46°46' E 031°57'0 0.0
2018-Feb-12 03:31N 46°46' E 031°57'0 0.0
2018-Feb-12 03:00N 46°46' E 031°57'0 0.0
2018-Feb-12 02:31N 46°46' E 031°57'0 0.0
2018-Feb-12 02:00N 46°46' E 031°57'1 1.8
2018-Feb-12 01:30N 46°46' E 031°56'2 4.7
2018-Feb-12 01:01N 46°43' E 031°56'5 9.9
2018-Feb-12 00:31N 46°38' E 031°55'5 9.8
2018-Feb-12 00:01N 46°36' E 031°49'510.2
2018-Feb-11 23:31N 46°36' E 031°41'25 9.1
2018-Feb-11 20:45N 46°34' E 031°05'2 7.8
2018-Feb-11 20:30N 46°34' E 031°02'3 6.3
2018-Feb-11 20:01N 46°33' E 030°58'3 5.4
2018-Feb-11 19:22N 46°29' E 030°57'3 5.5
2018-Feb-11 18:45N 46°26' E 030°57'5 0.1
2018-Feb-10 02:15N 46°23' E 031°02'  

Dump ship's entire track history